sensor_id;sensor_type;location;lat;lon;timestamp;pressure;altitude;pressure_sealevel;temperature;humidity
27864;BME280;15980;51.092;13.916;2022-12-18T00:04:16;100167.75;;;-7.27;85.79
27864;BME280;15980;51.092;13.916;2022-12-18T00:09:23;100168.16;;;-7.45;85.08
27864;BME280;15980;51.092;13.916;2022-12-18T00:14:30;100167.44;;;-7.53;85.52
27864;BME280;15980;51.092;13.916;2022-12-18T00:19:35;100177.50;;;-7.70;85.24
27864;BME280;15980;51.092;13.916;2022-12-18T00:24:40;100179.25;;;-7.77;85.80
27864;BME280;15980;51.092;13.916;2022-12-18T00:29:48;100183.81;;;-7.86;85.49
27864;BME280;15980;51.092;13.916;2022-12-18T00:34:53;100198.44;;;-7.82;86.36
27864;BME280;15980;51.092;13.916;2022-12-18T00:39:58;100201.09;;;-7.82;86.39
27864;BME280;15980;51.092;13.916;2022-12-18T00:45:06;100205.06;;;-7.93;85.83
27864;BME280;15980;51.092;13.916;2022-12-18T00:50:13;100215.06;;;-8.09;85.16
27864;BME280;15980;51.092;13.916;2022-12-18T00:55:18;100228.47;;;-8.03;85.90
27864;BME280;15980;51.092;13.916;2022-12-18T01:00:26;100230.41;;;-8.11;85.41
27864;BME280;15980;51.092;13.916;2022-12-18T01:05:31;100228.94;;;-8.14;86.03
27864;BME280;15980;51.092;13.916;2022-12-18T01:10:36;100231.38;;;-8.27;84.86
27864;BME280;15980;51.092;13.916;2022-12-18T01:15:47;100226.53;;;-8.38;85.23
27864;BME280;15980;51.092;13.916;2022-12-18T01:20:52;100228.16;;;-8.52;84.86
27864;BME280;15980;51.092;13.916;2022-12-18T01:25:58;100239.72;;;-8.68;83.74
27864;BME280;15980;51.092;13.916;2022-12-18T01:31:17;100236.72;;;-8.88;83.64
27864;BME280;15980;51.092;13.916;2022-12-18T01:36:25;100227.16;;;-8.97;84.87
27864;BME280;15980;51.092;13.916;2022-12-18T01:41:31;100239.56;;;-8.89;86.04
27864;BME280;15980;51.092;13.916;2022-12-18T01:46:51;100241.81;;;-8.55;86.98
27864;BME280;15980;51.092;13.916;2022-12-18T01:51:56;100239.53;;;-8.29;86.38
27864;BME280;15980;51.092;13.916;2022-12-18T01:57:01;100250.44;;;-8.01;86.81
27864;BME280;15980;51.092;13.916;2022-12-18T02:02:09;100240.25;;;-7.68;87.23
27864;BME280;15980;51.092;13.916;2022-12-18T02:07:22;100239.38;;;-7.39;86.71
27864;BME280;15980;51.092;13.916;2022-12-18T02:12:33;100228.53;;;-7.22;86.52
27864;BME280;15980;51.092;13.916;2022-12-18T02:17:50;100242.44;;;-7.06;86.01
27864;BME280;15980;51.092;13.916;2022-12-18T02:23:06;100235.25;;;-6.90;85.63
27864;BME280;15980;51.092;13.916;2022-12-18T02:28:20;100234.34;;;-6.76;87.33
27864;BME280;15980;51.092;13.916;2022-12-18T02:33:27;100242.88;;;-6.45;87.74
27864;BME280;15980;51.092;13.916;2022-12-18T02:38:35;100245.09;;;-6.20;88.33
27864;BME280;15980;51.092;13.916;2022-12-18T02:43:46;100245.88;;;-6.05;89.25
27864;BME280;15980;51.092;13.916;2022-12-18T02:48:52;100241.25;;;-5.83;90.02
27864;BME280;15980;51.092;13.916;2022-12-18T02:54:08;100244.97;;;-5.78;89.12
27864;BME280;15980;51.092;13.916;2022-12-18T02:59:20;100250.56;;;-5.73;88.79
27864;BME280;15980;51.092;13.916;2022-12-18T03:04:32;100234.91;;;-5.76;88.78
27864;BME280;15980;51.092;13.916;2022-12-18T03:09:42;100236.72;;;-5.83;88.16
27864;BME280;15980;51.092;13.916;2022-12-18T03:14:53;100239.81;;;-5.79;89.09
27864;BME280;15980;51.092;13.916;2022-12-18T03:20:04;100248.03;;;-5.81;89.08
27864;BME280;15980;51.092;13.916;2022-12-18T03:25:13;100251.94;;;-5.83;88.24
27864;BME280;15980;51.092;13.916;2022-12-18T03:30:21;100249.09;;;-5.75;88.77
27864;BME280;15980;51.092;13.916;2022-12-18T03:35:29;100249.09;;;-5.75;88.26
27864;BME280;15980;51.092;13.916;2022-12-18T03:40:43;100249.09;;;-5.75;88.27
27864;BME280;15980;51.092;13.916;2022-12-18T03:45:56;100262.22;;;-5.80;87.85
27864;BME280;15980;51.092;13.916;2022-12-18T03:51:07;100266.34;;;-5.78;88.56
27864;BME280;15980;51.092;13.916;2022-12-18T03:56:16;100271.06;;;-5.80;87.90
27864;BME280;15980;51.092;13.916;2022-12-18T04:01:29;100273.50;;;-5.85;88.06
27864;BME280;15980;51.092;13.916;2022-12-18T04:06:36;100273.75;;;-6.08;86.63
27864;BME280;15980;51.092;13.916;2022-12-18T04:11:42;100273.13;;;-6.10;87.08
27864;BME280;15980;51.092;13.916;2022-12-18T04:16:50;100275.66;;;-6.29;86.31
27864;BME280;15980;51.092;13.916;2022-12-18T04:21:55;100287.88;;;-6.42;87.51
27864;BME280;15980;51.092;13.916;2022-12-18T04:27:00;100286.00;;;-6.62;86.38
27864;BME280;15980;51.092;13.916;2022-12-18T04:32:07;100288.25;;;-7.02;85.38
27864;BME280;15980;51.092;13.916;2022-12-18T04:37:12;100303.84;;;-7.35;85.82
27864;BME280;15980;51.092;13.916;2022-12-18T04:42:17;100305.13;;;-7.61;85.08
27864;BME280;15980;51.092;13.916;2022-12-18T04:47:25;100314.56;;;-7.87;85.75
27864;BME280;15980;51.092;13.916;2022-12-18T04:52:30;100314.72;;;-8.04;85.43
27864;BME280;15980;51.092;13.916;2022-12-18T04:57:35;100308.53;;;-8.19;86.42
27864;BME280;15980;51.092;13.916;2022-12-18T05:02:42;100303.78;;;-8.32;86.13
27864;BME280;15980;51.092;13.916;2022-12-18T05:07:47;100297.28;;;-8.44;85.62
27864;BME280;15980;51.092;13.916;2022-12-18T05:12:52;100304.81;;;-8.78;84.60
27864;BME280;15980;51.092;13.916;2022-12-18T05:18:06;100315.69;;;-8.88;86.07
27864;BME280;15980;51.092;13.916;2022-12-18T05:23:11;100309.91;;;-8.92;85.95
27864;BME280;15980;51.092;13.916;2022-12-18T05:28:15;100309.53;;;-8.89;86.74
27864;BME280;15980;51.092;13.916;2022-12-18T05:33:24;100305.81;;;-8.79;87.03
27864;BME280;15980;51.092;13.916;2022-12-18T05:38:32;100315.56;;;-8.64;88.29
27864;BME280;15980;51.092;13.916;2022-12-18T05:43:38;100312.94;;;-8.49;88.83
27864;BME280;15980;51.092;13.916;2022-12-18T05:48:46;100319.28;;;-8.50;88.08
27864;BME280;15980;51.092;13.916;2022-12-18T05:53:52;100316.50;;;-8.57;87.70
27864;BME280;15980;51.092;13.916;2022-12-18T05:58:57;100315.59;;;-8.72;87.06
27864;BME280;15980;51.092;13.916;2022-12-18T06:04:04;100327.47;;;-8.82;86.74
27864;BME280;15980;51.092;13.916;2022-12-18T06:09:09;100328.03;;;-8.95;86.70
27864;BME280;15980;51.092;13.916;2022-12-18T06:14:14;100340.56;;;-9.12;85.99
27864;BME280;15980;51.092;13.916;2022-12-18T06:19:22;100334.31;;;-9.27;85.18
27864;BME280;15980;51.092;13.916;2022-12-18T06:24:27;100341.03;;;-9.47;84.37
27864;BME280;15980;51.092;13.916;2022-12-18T06:29:32;100349.34;;;-9.59;84.66
27864;BME280;15980;51.092;13.916;2022-12-18T06:34:39;100352.66;;;-9.57;85.68
27864;BME280;15980;51.092;13.916;2022-12-18T06:39:44;100351.03;;;-9.66;85.59
27864;BME280;15980;51.092;13.916;2022-12-18T06:44:49;100347.69;;;-9.60;86.05
27864;BME280;15980;51.092;13.916;2022-12-18T06:49:57;100350.81;;;-9.40;87.17
27864;BME280;15980;51.092;13.916;2022-12-18T06:55:02;100359.56;;;-9.23;87.90
27864;BME280;15980;51.092;13.916;2022-12-18T07:00:08;100366.97;;;-9.02;88.65
27864;BME280;15980;51.092;13.916;2022-12-18T07:05:15;100366.84;;;-8.78;89.27
27864;BME280;15980;51.092;13.916;2022-12-18T07:10:20;100377.09;;;-8.67;88.66
27864;BME280;15980;51.092;13.916;2022-12-18T07:15:25;100390.56;;;-8.68;87.90
27864;BME280;15980;51.092;13.916;2022-12-18T07:20:33;100390.56;;;-8.68;87.25
27864;BME280;15980;51.092;13.916;2022-12-18T07:25:38;100383.06;;;-8.65;87.52
27864;BME280;15980;51.092;13.916;2022-12-18T07:30:43;100385.56;;;-8.63;87.18
27864;BME280;15980;51.092;13.916;2022-12-18T07:35:52;100379.34;;;-8.56;87.37
27864;BME280;15980;51.092;13.916;2022-12-18T07:41:00;100381.00;;;-8.32;88.40
27864;BME280;15980;51.092;13.916;2022-12-18T07:46:06;100402.78;;;-8.05;88.53
27864;BME280;15980;51.092;13.916;2022-12-18T07:51:13;100421.22;;;-7.81;88.44
27864;BME280;15980;51.092;13.916;2022-12-18T07:56:19;100423.41;;;-7.62;88.21
27864;BME280;15980;51.092;13.916;2022-12-18T08:01:28;100416.03;;;-7.37;88.84
27864;BME280;15980;51.092;13.916;2022-12-18T08:06:36;100413.81;;;-7.04;89.49
27864;BME280;15980;51.092;13.916;2022-12-18T08:11:43;100392.44;;;-6.74;89.93
27864;BME280;15980;51.092;13.916;2022-12-18T08:16:48;100396.47;;;-6.49;89.33
27864;BME280;15980;51.092;13.916;2022-12-18T08:21:56;100381.47;;;-6.28;89.21
27864;BME280;15980;51.092;13.916;2022-12-18T08:27:00;100369.91;;;-6.14;88.58
27864;BME280;15980;51.092;13.916;2022-12-18T08:32:27;100380.97;;;-5.96;89.05
27864;BME280;15980;51.092;13.916;2022-12-18T08:37:34;100394.03;;;-5.80;88.65
27864;BME280;15980;51.092;13.916;2022-12-18T08:42:39;100378.94;;;-5.66;88.43
27864;BME280;15980;51.092;13.916;2022-12-18T08:47:57;100385.63;;;-5.55;87.75
27864;BME280;15980;51.092;13.916;2022-12-18T08:53:04;100389.59;;;-5.45;88.21
27864;BME280;15980;51.092;13.916;2022-12-18T08:58:09;100391.13;;;-5.29;87.83
27864;BME280;15980;51.092;13.916;2022-12-18T09:03:16;100394.19;;;-5.32;87.68
27864;BME280;15980;51.092;13.916;2022-12-18T09:08:27;100389.59;;;-5.17;87.47
27864;BME280;15980;51.092;13.916;2022-12-18T09:13:32;100397.25;;;-5.07;87.21
27864;BME280;15980;51.092;13.916;2022-12-18T09:18:37;100400.38;;;-5.03;87.50
27864;BME280;15980;51.092;13.916;2022-12-18T09:23:48;100408.06;;;-4.87;87.46
27864;BME280;15980;51.092;13.916;2022-12-18T09:28:53;100423.13;;;-4.80;86.96
27864;BME280;15980;51.092;13.916;2022-12-18T09:34:17;100426.25;;;-4.76;86.26
27864;BME280;15980;51.092;13.916;2022-12-18T09:39:25;100432.47;;;-4.69;86.21
27864;BME280;15980;51.092;13.916;2022-12-18T09:44:33;100425.91;;;-4.66;85.86
27864;BME280;15980;51.092;13.916;2022-12-18T09:49:47;100438.28;;;-4.59;86.75
27864;BME280;15980;51.092;13.916;2022-12-18T09:54:57;100428.44;;;-4.52;86.34
27864;BME280;15980;51.092;13.916;2022-12-18T10:00:09;100425.13;;;-4.47;85.16
27864;BME280;15980;51.092;13.916;2022-12-18T10:05:26;100421.09;;;-4.30;85.86
27864;BME280;15980;51.092;13.916;2022-12-18T10:10:41;100408.53;;;-4.29;85.81
27864;BME280;15980;51.092;13.916;2022-12-18T10:15:57;100387.94;;;-4.16;85.29
27864;BME280;15980;51.092;13.916;2022-12-18T10:21:10;100378.25;;;-4.10;84.68
27864;BME280;15980;51.092;13.916;2022-12-18T10:26:20;100376.19;;;-4.21;84.94
27864;BME280;15980;51.092;13.916;2022-12-18T10:31:25;100367.34;;;-4.02;83.75
27864;BME280;15980;51.092;13.916;2022-12-18T10:36:30;100357.66;;;-3.96;84.19
27864;BME280;15980;51.092;13.916;2022-12-18T10:41:37;100349.81;;;-3.98;84.45
27864;BME280;15980;51.092;13.916;2022-12-18T10:46:42;100347.97;;;-3.84;84.39
27864;BME280;15980;51.092;13.916;2022-12-18T10:51:48;100343.84;;;-3.87;82.95
27864;BME280;15980;51.092;13.916;2022-12-18T10:57:14;100347.56;;;-3.74;82.81
27864;BME280;15980;51.092;13.916;2022-12-18T11:02:27;100350.03;;;-3.66;82.70
27864;BME280;15980;51.092;13.916;2022-12-18T11:07:47;100352.72;;;-3.66;83.03
27864;BME280;15980;51.092;13.916;2022-12-18T11:13:11;100347.75;;;-3.63;81.98
27864;BME280;15980;51.092;13.916;2022-12-18T11:18:23;100332.50;;;-3.82;82.51
27864;BME280;15980;51.092;13.916;2022-12-18T11:23:30;100334.34;;;-3.63;82.09
27864;BME280;15980;51.092;13.916;2022-12-18T11:28:40;100322.59;;;-3.68;81.83
27864;BME280;15980;51.092;13.916;2022-12-18T11:33:54;100324.22;;;-3.61;81.66
27864;BME280;15980;51.092;13.916;2022-12-18T11:39:24;100330.00;;;-3.64;82.38
27864;BME280;15980;51.092;13.916;2022-12-18T11:44:35;100324.03;;;-3.59;81.18
27864;BME280;15980;51.092;13.916;2022-12-18T11:49:41;100324.03;;;-3.66;82.17
27864;BME280;15980;51.092;13.916;2022-12-18T11:54:47;100318.06;;;-3.74;81.79
27864;BME280;15980;51.092;13.916;2022-12-18T12:00:02;100327.31;;;-3.57;81.24
27864;BME280;15980;51.092;13.916;2022-12-18T12:05:28;100325.25;;;-3.55;81.33
27864;BME280;15980;51.092;13.916;2022-12-18T12:10:47;100316.59;;;-3.64;80.68
27864;BME280;15980;51.092;13.916;2022-12-18T12:16:07;100320.31;;;-3.65;80.46
27864;BME280;15980;51.092;13.916;2022-12-18T12:21:23;100330.00;;;-3.57;81.31
27864;BME280;15980;51.092;13.916;2022-12-18T12:26:35;100338.88;;;-3.57;80.01
27864;BME280;15980;51.092;13.916;2022-12-18T12:31:55;100334.75;;;-3.59;80.20
27864;BME280;15980;51.092;13.916;2022-12-18T12:37:06;100349.81;;;-3.65;79.87
27864;BME280;15980;51.092;13.916;2022-12-18T12:42:20;100366.13;;;-3.73;79.88
27864;BME280;15980;51.092;13.916;2022-12-18T12:47:42;100364.47;;;-3.87;79.94
27864;BME280;15980;51.092;13.916;2022-12-18T12:52:52;100369.41;;;-3.97;79.48
27864;BME280;15980;51.092;13.916;2022-12-18T13:03:32;100349.38;;;-4.15;79.99
27864;BME280;15980;51.092;13.916;2022-12-18T13:08:54;100337.41;;;-4.25;81.45
27864;BME280;15980;51.092;13.916;2022-12-18T13:13:59;100334.31;;;-4.29;81.61
27864;BME280;15980;51.092;13.916;2022-12-18T13:19:21;100335.97;;;-4.28;81.03
27864;BME280;15980;51.092;13.916;2022-12-18T13:24:31;100344.78;;;-4.40;82.03
27864;BME280;15980;51.092;13.916;2022-12-18T13:29:45;100345.19;;;-4.44;82.23
27864;BME280;15980;51.092;13.916;2022-12-18T13:40:58;100347.06;;;-4.37;81.60
27864;BME280;15980;51.092;13.916;2022-12-18T13:46:26;100340.88;;;-4.45;81.22
27864;BME280;15980;51.092;13.916;2022-12-18T13:51:33;100354.44;;;-4.53;81.52
27864;BME280;15980;51.092;13.916;2022-12-18T13:56:44;100350.34;;;-4.42;81.95
27864;BME280;15980;51.092;13.916;2022-12-18T14:01:52;100328.72;;;-4.40;81.12
27864;BME280;15980;51.092;13.916;2022-12-18T14:07:03;100331.59;;;-4.42;82.13
27864;BME280;15980;51.092;13.916;2022-12-18T14:12:17;100339.41;;;-4.54;81.55
27864;BME280;15980;51.092;13.916;2022-12-18T14:17:36;100364.28;;;-4.73;81.87
27864;BME280;15980;51.092;13.916;2022-12-18T14:22:42;100357.81;;;-4.85;82.06
27864;BME280;15980;51.092;13.916;2022-12-18T14:27:52;100347.25;;;-5.00;82.08
27864;BME280;15980;51.092;13.916;2022-12-18T14:33:05;100337.81;;;-4.96;83.08
27864;BME280;15980;51.092;13.916;2022-12-18T14:38:20;100331.78;;;-5.11;83.60
27864;BME280;15980;51.092;13.916;2022-12-18T14:43:30;100322.75;;;-5.03;84.09
27864;BME280;15980;51.092;13.916;2022-12-18T14:48:37;100302.75;;;-5.14;84.21
27864;BME280;15980;51.092;13.916;2022-12-18T14:53:45;100302.25;;;-5.24;84.26
27864;BME280;15980;51.092;13.916;2022-12-18T14:58:59;100311.94;;;-5.23;85.69
27864;BME280;15980;51.092;13.916;2022-12-18T15:04:23;100306.38;;;-5.22;86.54
27864;BME280;15980;51.092;13.916;2022-12-18T15:09:29;100319.72;;;-5.28;86.51
27864;BME280;15980;51.092;13.916;2022-12-18T15:14:39;100317.25;;;-5.30;86.63
27864;BME280;15980;51.092;13.916;2022-12-18T15:19:45;100315.78;;;-5.32;86.48
27864;BME280;15980;51.092;13.916;2022-12-18T15:24:51;100301.91;;;-5.49;86.80
27864;BME280;15980;51.092;13.916;2022-12-18T15:30:16;100295.84;;;-5.64;86.92
27864;BME280;15980;51.092;13.916;2022-12-18T15:35:24;100283.38;;;-5.57;88.58
27864;BME280;15980;51.092;13.916;2022-12-18T15:40:29;100299.72;;;-5.67;88.14
27864;BME280;15980;51.092;13.916;2022-12-18T15:45:37;100283.31;;;-5.64;88.03
27864;BME280;15980;51.092;13.916;2022-12-18T15:50:42;100283.03;;;-5.76;88.88
27864;BME280;15980;51.092;13.916;2022-12-18T15:55:47;100283.25;;;-5.71;89.17
27864;BME280;15980;51.092;13.916;2022-12-18T16:01:07;100282.81;;;-5.74;88.51
27864;BME280;15980;51.092;13.916;2022-12-18T16:06:13;100255.66;;;-5.78;89.00
27864;BME280;15980;51.092;13.916;2022-12-18T16:11:23;100258.09;;;-5.83;90.41
27864;BME280;15980;51.092;13.916;2022-12-18T16:16:42;100257.47;;;-5.91;89.69
27864;BME280;15980;51.092;13.916;2022-12-18T16:21:48;100259.34;;;-5.79;89.91
27864;BME280;15980;51.092;13.916;2022-12-18T16:26:54;100268.03;;;-5.70;89.44
27864;BME280;15980;51.092;13.916;2022-12-18T16:32:02;100262.09;;;-5.65;88.81
27864;BME280;15980;51.092;13.916;2022-12-18T16:37:08;100262.84;;;-5.78;88.65
27864;BME280;15980;51.092;13.916;2022-12-18T16:42:15;100255.88;;;-5.79;88.75
27864;BME280;15980;51.092;13.916;2022-12-18T16:47:24;100246.72;;;-5.63;88.14
27864;BME280;15980;51.092;13.916;2022-12-18T16:52:28;100253.72;;;-5.62;88.83
27864;BME280;15980;51.092;13.916;2022-12-18T16:57:33;100249.00;;;-5.60;89.22
27864;BME280;15980;51.092;13.916;2022-12-18T17:02:41;100236.47;;;-5.53;88.62
27864;BME280;15980;51.092;13.916;2022-12-18T17:07:46;100249.66;;;-5.52;88.38
27864;BME280;15980;51.092;13.916;2022-12-18T17:12:51;100237.31;;;-5.53;87.82
27864;BME280;15980;51.092;13.916;2022-12-18T17:17:58;100238.75;;;-5.50;88.37
27864;BME280;15980;51.092;13.916;2022-12-18T17:23:03;100257.44;;;-5.57;88.67
27864;BME280;15980;51.092;13.916;2022-12-18T17:28:08;100253.19;;;-5.45;87.90
27864;BME280;15980;51.092;13.916;2022-12-18T17:33:16;100260.38;;;-5.45;87.82
27864;BME280;15980;51.092;13.916;2022-12-18T17:38:21;100238.38;;;-5.41;88.11
27864;BME280;15980;51.092;13.916;2022-12-18T17:43:26;100242.91;;;-5.41;87.61
27864;BME280;15980;51.092;13.916;2022-12-18T17:48:34;100248.88;;;-5.39;88.03
27864;BME280;15980;51.092;13.916;2022-12-18T17:53:38;100236.94;;;-5.43;87.35
27864;BME280;15980;51.092;13.916;2022-12-18T17:58:43;100246.88;;;-5.30;87.47
27864;BME280;15980;51.092;13.916;2022-12-18T18:03:52;100245.00;;;-5.37;86.96
27864;BME280;15980;51.092;13.916;2022-12-18T18:08:57;100239.22;;;-5.40;86.69
27864;BME280;15980;51.092;13.916;2022-12-18T18:14:03;100245.19;;;-5.38;87.14
27864;BME280;15980;51.092;13.916;2022-12-18T18:19:13;100238.44;;;-5.27;86.39
27864;BME280;15980;51.092;13.916;2022-12-18T18:24:21;100237.81;;;-5.29;86.60
27864;BME280;15980;51.092;13.916;2022-12-18T18:29:27;100241.13;;;-5.21;87.47
27864;BME280;15980;51.092;13.916;2022-12-18T18:34:36;100234.63;;;-5.12;86.56
27864;BME280;15980;51.092;13.916;2022-12-18T18:39:41;100226.41;;;-4.97;86.70
27864;BME280;15980;51.092;13.916;2022-12-18T18:44:46;100223.13;;;-4.92;86.27
27864;BME280;15980;51.092;13.916;2022-12-18T18:49:53;100220.44;;;-4.92;85.77
27864;BME280;15980;51.092;13.916;2022-12-18T18:54:58;100215.53;;;-4.82;86.04
27864;BME280;15980;51.092;13.916;2022-12-18T19:00:14;100209.34;;;-4.89;85.47
27864;BME280;15980;51.092;13.916;2022-12-18T19:05:22;100198.41;;;-4.88;85.65
27864;BME280;15980;51.092;13.916;2022-12-18T19:10:27;100186.50;;;-4.79;86.02
27864;BME280;15980;51.092;13.916;2022-12-18T19:15:32;100191.81;;;-4.92;85.27
27864;BME280;15980;51.092;13.916;2022-12-18T19:20:40;100172.06;;;-4.78;85.16
27864;BME280;15980;51.092;13.916;2022-12-18T19:25:45;100164.91;;;-4.70;85.61
27864;BME280;15980;51.092;13.916;2022-12-18T19:30:52;100153.94;;;-4.82;85.20
27864;BME280;15980;51.092;13.916;2022-12-18T19:36:00;100147.59;;;-4.68;85.07
27864;BME280;15980;51.092;13.916;2022-12-18T19:41:13;100139.94;;;-4.78;85.98
27864;BME280;15980;51.092;13.916;2022-12-18T19:46:20;100131.31;;;-4.60;84.82
27864;BME280;15980;51.092;13.916;2022-12-18T19:51:29;100139.97;;;-4.64;84.13
27864;BME280;15980;51.092;13.916;2022-12-18T19:56:35;100123.88;;;-4.51;84.68
27864;BME280;15980;51.092;13.916;2022-12-18T20:01:41;100095.28;;;-4.70;84.29
27864;BME280;15980;51.092;13.916;2022-12-18T20:06:50;100101.63;;;-4.45;83.78
27864;BME280;15980;51.092;13.916;2022-12-18T20:11:55;100109.03;;;-4.40;83.48
27864;BME280;15980;51.092;13.916;2022-12-18T20:17:00;100106.97;;;-4.45;83.32
27864;BME280;15980;51.092;13.916;2022-12-18T20:22:09;100095.84;;;-4.29;83.61
27864;BME280;15980;51.092;13.916;2022-12-18T20:27:14;100104.91;;;-4.36;83.21
27864;BME280;15980;51.092;13.916;2022-12-18T20:32:20;100111.72;;;-4.27;82.90
27864;BME280;15980;51.092;13.916;2022-12-18T20:37:30;100094.56;;;-4.13;83.15
27864;BME280;15980;51.092;13.916;2022-12-18T20:42:35;100106.13;;;-4.19;82.30
27864;BME280;15980;51.092;13.916;2022-12-18T20:47:41;100092.69;;;-4.13;81.87
27864;BME280;15980;51.092;13.916;2022-12-18T20:52:49;100096.16;;;-3.99;81.95
27864;BME280;15980;51.092;13.916;2022-12-18T20:57:54;100079.69;;;-4.09;82.58
27864;BME280;15980;51.092;13.916;2022-12-18T21:02:58;100082.13;;;-4.01;81.72
27864;BME280;15980;51.092;13.916;2022-12-18T21:08:07;100070.59;;;-4.01;81.37
27864;BME280;15980;51.092;13.916;2022-12-18T21:13:12;100053.06;;;-4.04;81.51
27864;BME280;15980;51.092;13.916;2022-12-18T21:18:17;100066.09;;;-4.07;82.04
27864;BME280;15980;51.092;13.916;2022-12-18T21:23:25;100068.53;;;-3.99;81.21
27864;BME280;15980;51.092;13.916;2022-12-18T21:28:30;100072.41;;;-3.95;80.98
27864;BME280;15980;51.092;13.916;2022-12-18T21:33:35;100074.72;;;-3.99;81.77
27864;BME280;15980;51.092;13.916;2022-12-18T21:38:42;100053.09;;;-4.11;81.29
27864;BME280;15980;51.092;13.916;2022-12-18T21:43:47;100044.03;;;-4.09;82.69
27864;BME280;15980;51.092;13.916;2022-12-18T21:49:05;100044.91;;;-4.22;82.50
27864;BME280;15980;51.092;13.916;2022-12-18T21:54:13;100039.94;;;-4.19;82.42
27864;BME280;15980;51.092;13.916;2022-12-18T21:59:20;100044.63;;;-4.07;82.75
27864;BME280;15980;51.092;13.916;2022-12-18T22:04:25;100043.38;;;-4.05;82.41
27864;BME280;15980;51.092;13.916;2022-12-18T22:09:33;100036.00;;;-4.09;81.84
27864;BME280;15980;51.092;13.916;2022-12-18T22:14:38;100049.13;;;-3.95;80.85
27864;BME280;15980;51.092;13.916;2022-12-18T22:19:43;100036.97;;;-3.97;80.65
27864;BME280;15980;51.092;13.916;2022-12-18T22:24:51;100039.88;;;-4.05;80.85
27864;BME280;15980;51.092;13.916;2022-12-18T22:29:55;100049.56;;;-4.04;80.78
27864;BME280;15980;51.092;13.916;2022-12-18T22:35:09;100035.22;;;-4.23;81.80
27864;BME280;15980;51.092;13.916;2022-12-18T22:40:20;100035.84;;;-4.21;81.84
27864;BME280;15980;51.092;13.916;2022-12-18T22:45:26;100016.69;;;-4.31;80.99
27864;BME280;15980;51.092;13.916;2022-12-18T22:50:31;100017.94;;;-4.40;81.14
27864;BME280;15980;51.092;13.916;2022-12-18T22:55:38;99993.22;;;-4.43;81.88
27864;BME280;15980;51.092;13.916;2022-12-18T23:00:43;99990.34;;;-4.48;81.90
27864;BME280;15980;51.092;13.916;2022-12-18T23:05:48;99996.56;;;-4.54;81.63
27864;BME280;15980;51.092;13.916;2022-12-18T23:10:56;99984.22;;;-4.61;81.90
27864;BME280;15980;51.092;13.916;2022-12-18T23:16:04;99959.53;;;-4.83;82.41
27864;BME280;15980;51.092;13.916;2022-12-18T23:21:11;99948.38;;;-4.60;83.44
27864;BME280;15980;51.092;13.916;2022-12-18T23:26:21;99923.25;;;-4.59;82.74
27864;BME280;15980;51.092;13.916;2022-12-18T23:31:27;99927.16;;;-4.62;83.53
27864;BME280;15980;51.092;13.916;2022-12-18T23:36:32;99900.84;;;-4.85;83.41
27864;BME280;15980;51.092;13.916;2022-12-18T23:41:40;99896.72;;;-4.81;83.68
27864;BME280;15980;51.092;13.916;2022-12-18T23:46:45;99896.97;;;-4.95;84.23
27864;BME280;15980;51.092;13.916;2022-12-18T23:51:52;99881.94;;;-4.90;86.13
27864;BME280;15980;51.092;13.916;2022-12-18T23:57:00;99873.88;;;-4.83;85.22
